createdAt,value
2023-03-02T00:01:05.600Z,76.30
2023-03-02T00:02:27.583Z,76.40
2023-03-02T00:03:47.955Z,76.60
2023-03-02T00:05:08.757Z,76.70
2023-03-02T00:06:29.347Z,76.80
2023-03-02T00:07:49.966Z,77.00
2023-03-02T00:09:10.535Z,77.20
2023-03-02T00:10:31.333Z,77.40
2023-03-02T00:11:52.284Z,77.50
2023-03-02T00:13:12.781Z,77.60
2023-03-02T00:14:33.352Z,78.00
2023-03-02T00:15:53.917Z,78.30
2023-03-02T00:17:14.248Z,78.50
2023-03-02T00:18:36.053Z,78.80
2023-03-02T00:19:57.200Z,78.90
2023-03-02T00:21:17.739Z,79.00
2023-03-02T00:22:38.618Z,79.20
2023-03-02T00:23:58.847Z,79.40
2023-03-02T00:25:19.433Z,80.00
2023-03-02T00:26:39.700Z,80.10
2023-03-02T00:27:59.986Z,80.00
2023-03-02T00:29:20.767Z,80.20
2023-03-02T00:30:41.515Z,80.50
2023-03-02T00:32:01.998Z,80.80
2023-03-02T00:33:22.473Z,80.90
2023-03-02T00:34:44.404Z,80.90
2023-03-02T00:36:05.351Z,81.00
2023-03-02T00:37:25.962Z,81.20
2023-03-02T00:38:46.656Z,81.10
2023-03-02T00:40:07.810Z,81.20
2023-03-02T00:41:28.404Z,81.20
2023-03-02T00:42:49.058Z,81.20
2023-03-02T00:44:09.259Z,81.10
2023-03-02T00:45:29.798Z,81.20
2023-03-02T00:46:50.395Z,81.40
2023-03-02T00:48:10.779Z,81.30
2023-03-02T00:49:31.197Z,81.50
2023-03-02T00:50:53.052Z,81.60
2023-03-02T00:52:13.434Z,81.90
2023-03-02T00:53:34.474Z,81.90
2023-03-02T00:54:54.949Z,82.00
2023-03-02T00:56:15.650Z,82.10
2023-03-02T00:57:36.083Z,82.20
2023-03-02T00:58:56.678Z,82.20
2023-03-02T01:00:17.850Z,82.60
2023-03-02T01:01:38.484Z,82.50
2023-03-02T01:02:59.272Z,82.50
2023-03-02T01:04:19.556Z,82.60
2023-03-02T01:05:40.118Z,82.80
2023-03-02T01:07:02.617Z,82.90
2023-03-02T01:08:23.007Z,83.00
2023-03-02T01:09:44.187Z,83.00
2023-03-02T01:11:12.051Z,83.20
2023-03-02T01:12:32.756Z,83.20
2023-03-02T01:13:53.140Z,83.60
2023-03-02T01:15:13.864Z,83.40
2023-03-02T01:16:34.839Z,83.70
2023-03-02T01:17:55.552Z,83.70
2023-03-02T01:19:16.461Z,83.80
2023-03-02T01:20:36.878Z,83.70
2023-03-02T01:21:57.439Z,83.60
2023-03-02T01:23:19.441Z,83.70
2023-03-02T01:24:39.889Z,83.90
2023-03-02T01:26:00.349Z,83.80
2023-03-02T01:27:20.951Z,83.90
2023-03-02T01:28:42.722Z,83.90
2023-03-02T01:30:03.561Z,83.90
2023-03-02T01:31:24.051Z,84.00
2023-03-02T01:32:44.716Z,84.00
2023-03-02T01:34:05.387Z,83.90
2023-03-02T01:35:26.125Z,84.00
2023-03-02T01:36:46.505Z,84.10
2023-03-02T01:38:07.183Z,84.20
2023-03-02T01:39:29.204Z,84.20
2023-03-02T01:40:49.842Z,84.50
2023-03-02T01:42:10.698Z,84.70
2023-03-02T01:43:31.073Z,84.80
2023-03-02T01:44:52.195Z,84.90
2023-03-02T01:46:13.216Z,84.80
2023-03-02T01:47:34.226Z,84.80
2023-03-02T01:48:56.506Z,85.10
2023-03-02T01:50:18.129Z,85.20
2023-03-02T01:51:41.033Z,85.20
2023-03-02T01:53:01.156Z,85.20
2023-03-02T01:54:21.685Z,85.10
2023-03-02T01:55:43.623Z,85.30
2023-03-02T01:57:04.043Z,85.10
2023-03-02T01:58:24.702Z,85.20
2023-03-02T01:59:45.227Z,85.10
2023-03-02T02:01:06.858Z,85.10
2023-03-02T02:02:27.437Z,85.20
2023-03-02T02:03:48.828Z,85.30
2023-03-02T02:05:09.134Z,85.10
2023-03-02T02:06:31.192Z,85.30
2023-03-02T02:07:52.103Z,85.30
2023-03-02T02:09:13.338Z,85.30
2023-03-02T02:10:33.811Z,85.20
2023-03-02T02:11:55.920Z,85.00
2023-03-02T02:13:16.444Z,85.00
2023-03-02T02:14:37.028Z,85.00
2023-03-02T02:15:57.377Z,85.10
2023-03-02T02:17:18.169Z,85.10
2023-03-02T02:18:39.462Z,85.20
2023-03-02T02:20:02.435Z,85.20
2023-03-02T02:21:22.725Z,85.10
2023-03-02T02:22:46.231Z,84.90
2023-03-02T02:24:07.904Z,84.90
2023-03-02T02:25:33.841Z,85.00
2023-03-02T02:26:55.426Z,85.10
2023-03-02T02:28:16.839Z,85.60
2023-03-02T02:29:37.897Z,85.60
2023-03-02T02:31:00.039Z,85.80
2023-03-02T02:32:21.992Z,85.70
2023-03-02T02:33:43.072Z,85.60
2023-03-02T02:35:04.088Z,85.70
2023-03-02T02:36:25.073Z,85.50
2023-03-02T02:37:46.607Z,85.60
2023-03-02T02:39:07.662Z,85.50
2023-03-02T02:40:38.767Z,85.50
2023-03-02T02:42:02.690Z,85.70
2023-03-02T02:43:23.215Z,85.60
2023-03-02T02:44:43.798Z,85.50
2023-03-02T02:46:04.344Z,85.30
2023-03-02T02:47:25.128Z,85.20
2023-03-02T02:48:45.686Z,85.30
2023-03-02T02:50:06.725Z,85.70
2023-03-02T02:51:27.454Z,85.60
2023-03-02T02:52:48.132Z,85.70
2023-03-02T02:54:08.762Z,85.70
2023-03-02T02:55:29.180Z,85.90
2023-03-02T02:56:49.498Z,86.10
2023-03-02T02:58:15.875Z,85.90
2023-03-02T02:59:36.743Z,85.90
2023-03-02T03:00:57.327Z,85.90
2023-03-02T03:02:18.250Z,86.00
2023-03-02T03:03:38.739Z,85.80
2023-03-02T03:04:59.147Z,86.00
2023-03-02T03:06:20.711Z,85.90
2023-03-02T03:07:41.395Z,86.10
2023-03-02T03:09:01.921Z,86.00
2023-03-02T03:10:23.282Z,86.10
2023-03-02T03:11:45.001Z,86.20
2023-03-02T03:13:05.471Z,86.10
2023-03-02T03:14:28.125Z,86.30
2023-03-02T03:15:48.669Z,86.30
2023-03-02T03:17:09.164Z,86.10
2023-03-02T03:18:29.484Z,86.20
2023-03-02T03:19:50.176Z,86.20
2023-03-02T03:21:10.775Z,86.10
2023-03-02T03:22:31.569Z,86.20
2023-03-02T03:23:51.758Z,86.10
2023-03-02T03:25:12.287Z,86.20
2023-03-02T03:26:33.310Z,86.00
2023-03-02T03:27:53.730Z,86.30
2023-03-02T03:29:14.551Z,86.60
2023-03-02T03:30:36.248Z,86.60
2023-03-02T03:31:56.860Z,86.60
2023-03-02T03:33:17.006Z,86.60
2023-03-02T03:34:37.594Z,86.60
2023-03-02T03:35:57.989Z,86.80
2023-03-02T03:37:18.984Z,86.50
2023-03-02T03:38:39.754Z,86.70
2023-03-02T03:40:00.351Z,86.70
2023-03-02T03:41:20.829Z,86.50
2023-03-02T03:42:41.153Z,86.60
2023-03-02T03:44:01.809Z,86.80
2023-03-02T03:45:22.636Z,86.60
2023-03-02T03:46:44.732Z,86.60
2023-03-02T03:48:06.553Z,86.40
2023-03-02T03:49:27.028Z,86.20
2023-03-02T03:50:47.445Z,86.30
2023-03-02T03:52:08.200Z,86.20
2023-03-02T03:53:28.935Z,86.00
2023-03-02T03:54:49.604Z,86.00
2023-03-02T03:56:10.173Z,86.30
2023-03-02T03:57:30.807Z,86.20
2023-03-02T03:58:51.347Z,86.20
2023-03-02T04:00:12.685Z,86.20
2023-03-02T04:01:33.694Z,86.00
2023-03-02T04:02:55.898Z,86.00
2023-03-02T04:04:17.525Z,86.20
2023-03-02T04:05:37.888Z,86.20
2023-03-02T04:06:58.721Z,86.20
2023-03-02T04:08:19.405Z,86.20
2023-03-02T04:09:39.824Z,86.30
2023-03-02T04:11:00.545Z,86.30
2023-03-02T04:12:20.657Z,86.30
2023-03-02T04:13:41.090Z,86.20
2023-03-02T04:15:01.760Z,86.50
2023-03-02T04:16:22.283Z,86.50
2023-03-02T04:17:42.869Z,86.30
2023-03-02T04:19:05.036Z,86.20
2023-03-02T04:20:25.831Z,86.10
2023-03-02T04:21:47.254Z,86.00
2023-03-02T04:23:07.633Z,86.00
2023-03-02T04:24:28.114Z,85.90
2023-03-02T04:25:48.677Z,86.00
2023-03-02T04:27:09.465Z,85.80
2023-03-02T04:28:29.683Z,85.90
2023-03-02T04:29:50.248Z,86.00
2023-03-02T04:31:10.747Z,86.00
2023-03-02T04:32:31.703Z,86.00
2023-03-02T04:33:52.180Z,85.90
2023-03-02T04:35:14.242Z,86.00
2023-03-02T04:36:36.365Z,85.90
2023-03-02T04:37:57.050Z,86.00
2023-03-02T04:39:18.036Z,85.80
2023-03-02T04:40:38.584Z,86.10
2023-03-02T04:41:59.025Z,86.20
2023-03-02T04:43:19.547Z,86.20
2023-03-02T04:44:40.124Z,86.20
2023-03-02T04:46:00.603Z,86.30
2023-03-02T04:47:21.015Z,86.40
2023-03-02T04:48:41.896Z,86.30
2023-03-02T04:50:02.493Z,86.40
2023-03-02T04:51:25.191Z,86.20
2023-03-02T04:52:45.626Z,85.80
2023-03-02T04:54:07.116Z,86.40
2023-03-02T04:55:27.815Z,86.40
2023-03-02T04:56:48.306Z,86.40
2023-03-02T04:58:08.695Z,86.30
2023-03-02T04:59:29.293Z,86.20
2023-03-02T05:00:49.655Z,86.20
2023-03-02T05:02:10.293Z,86.30
2023-03-02T05:03:30.660Z,86.40
2023-03-02T05:04:51.291Z,86.40
2023-03-02T05:06:11.921Z,86.40
2023-03-02T05:07:33.859Z,86.50
2023-03-02T05:08:54.123Z,86.30
2023-03-02T05:10:15.100Z,86.30
2023-03-02T05:11:35.841Z,86.40
2023-03-02T05:12:56.420Z,86.50
2023-03-02T05:14:16.995Z,86.50
2023-03-02T05:15:38.101Z,86.60
2023-03-02T05:16:58.485Z,86.50
2023-03-02T05:18:19.693Z,86.30
2023-03-02T05:19:39.968Z,86.40
2023-03-02T05:21:00.367Z,86.40
2023-03-02T05:22:20.838Z,86.40
2023-03-02T05:23:42.601Z,86.30
2023-03-02T05:25:03.049Z,86.30
2023-03-02T05:26:23.501Z,86.40
2023-03-02T05:27:44.332Z,86.10
2023-03-02T05:29:04.781Z,86.10
2023-03-02T05:30:25.455Z,86.10
2023-03-02T05:31:46.095Z,86.00
2023-03-02T05:33:06.421Z,86.00
2023-03-02T05:34:26.762Z,86.00
2023-03-02T05:35:47.822Z,86.10
2023-03-02T05:37:08.428Z,86.00
2023-03-02T05:38:28.947Z,86.30
2023-03-02T05:39:50.906Z,86.30
2023-03-02T05:41:11.497Z,86.50
2023-03-02T05:42:32.000Z,86.50
2023-03-02T05:43:52.705Z,86.50
2023-03-02T05:45:14.488Z,86.70
2023-03-02T05:46:35.368Z,86.80
2023-03-02T05:47:56.294Z,86.80
2023-03-02T05:49:16.748Z,86.80
2023-03-02T05:50:37.569Z,86.50
2023-03-02T05:51:58.167Z,86.50
2023-03-02T05:53:18.788Z,86.50
2023-03-02T05:54:39.661Z,86.60
2023-03-02T05:56:01.179Z,86.70
2023-03-02T05:57:21.731Z,86.70
2023-03-02T05:58:42.169Z,86.80
2023-03-02T06:00:02.783Z,86.90
2023-03-02T06:01:23.227Z,87.00
2023-03-02T06:02:44.063Z,87.00
2023-03-02T06:04:04.366Z,87.00
2023-03-02T06:05:24.896Z,87.00
2023-03-02T06:06:45.475Z,87.00
2023-03-02T06:08:06.188Z,86.90
2023-03-02T06:09:26.791Z,86.90
2023-03-02T06:10:47.383Z,86.90
2023-03-02T06:12:09.237Z,86.90
2023-03-02T06:13:29.365Z,86.60
2023-03-02T06:14:49.909Z,86.60
2023-03-02T06:16:10.443Z,86.60
2023-03-02T06:17:31.002Z,86.50
2023-03-02T06:18:51.511Z,86.50
2023-03-02T06:20:12.412Z,86.50
2023-03-02T06:21:33.225Z,86.40
2023-03-02T06:22:54.047Z,86.20
2023-03-02T06:24:14.471Z,86.40
2023-03-02T06:25:34.952Z,86.40
2023-03-02T06:26:55.593Z,86.60
2023-03-02T06:28:17.696Z,86.80
2023-03-02T06:29:37.976Z,86.60
2023-03-02T06:30:58.639Z,86.60
2023-03-02T06:32:19.381Z,86.60
2023-03-02T06:33:39.727Z,86.70
2023-03-02T06:35:00.341Z,86.80
2023-03-02T06:36:20.914Z,86.70
2023-03-02T06:37:44.038Z,86.80
2023-03-02T06:39:05.035Z,86.90
2023-03-02T06:40:25.346Z,86.80
2023-03-02T06:41:46.202Z,86.80
2023-03-02T06:43:06.463Z,86.80
2023-03-02T06:44:28.232Z,86.70
2023-03-02T06:45:48.689Z,86.70
2023-03-02T06:47:09.291Z,86.80
2023-03-02T06:48:29.695Z,86.70
2023-03-02T06:49:50.343Z,86.90
2023-03-02T06:51:10.887Z,86.80
2023-03-02T06:52:31.192Z,86.80
2023-03-02T06:53:51.822Z,86.60
2023-03-02T06:55:12.821Z,86.50
2023-03-02T06:56:33.495Z,86.50
2023-03-02T06:57:54.224Z,86.60
2023-03-02T06:59:14.756Z,86.70
2023-03-02T07:00:36.847Z,86.70
2023-03-02T07:01:57.308Z,86.70
2023-03-02T07:03:17.963Z,86.40
2023-03-02T07:04:38.504Z,86.40
2023-03-02T07:05:59.236Z,86.40
2023-03-02T07:07:19.767Z,86.20
2023-03-02T07:08:40.687Z,86.10
2023-03-02T07:10:00.774Z,86.20
2023-03-02T07:11:21.433Z,86.00
2023-03-02T07:12:42.292Z,86.00
2023-03-02T07:14:02.810Z,85.90
2023-03-02T07:15:22.925Z,86.00
2023-03-02T07:16:44.882Z,85.90
2023-03-02T07:18:05.345Z,86.10
2023-03-02T07:19:25.818Z,86.20
2023-03-02T07:20:46.689Z,86.20
2023-03-02T07:22:07.260Z,86.20
2023-03-02T07:23:27.824Z,86.30
2023-03-02T07:24:48.214Z,86.30
2023-03-02T07:26:08.788Z,86.30
2023-03-02T07:27:29.369Z,86.40
2023-03-02T07:28:49.955Z,86.40
2023-03-02T07:30:11.382Z,86.40
2023-03-02T07:31:31.861Z,86.40
2023-03-02T07:32:53.968Z,86.40
2023-03-02T07:34:14.365Z,86.20
2023-03-02T07:35:34.978Z,86.30
2023-03-02T07:36:55.550Z,86.20
2023-03-02T07:38:16.418Z,86.20
2023-03-02T07:39:36.952Z,86.30
2023-03-02T07:40:57.502Z,86.20
2023-03-02T07:42:21.181Z,86.00
2023-03-02T07:43:41.826Z,86.30
2023-03-02T07:45:02.436Z,86.20
2023-03-02T07:46:23.079Z,86.20
2023-03-02T07:47:43.403Z,86.20
2023-03-02T07:49:05.160Z,86.20
2023-03-02T07:50:25.762Z,86.10
2023-03-02T07:51:46.546Z,85.80
2023-03-02T07:53:07.060Z,86.00
2023-03-02T07:54:27.562Z,86.00
2023-03-02T07:55:48.010Z,85.80
2023-03-02T07:57:08.469Z,85.80
2023-03-02T07:58:28.902Z,85.70
2023-03-02T07:59:49.545Z,85.60
2023-03-02T08:01:10.070Z,85.80
2023-03-02T08:02:30.577Z,85.80
2023-03-02T08:03:51.095Z,85.80
2023-03-02T08:05:13.030Z,85.80
2023-03-02T08:06:33.418Z,85.80
2023-03-02T08:07:53.731Z,85.70
2023-03-02T08:09:16.722Z,85.60
2023-03-02T08:10:37.226Z,85.50
2023-03-02T08:11:57.613Z,85.50
2023-03-02T08:13:18.251Z,85.70
2023-03-02T08:14:39.525Z,85.60
2023-03-02T08:16:00.338Z,85.50
2023-03-02T08:17:20.976Z,85.50
2023-03-02T08:18:41.675Z,85.30
2023-03-02T08:20:01.940Z,85.10
2023-03-02T08:21:23.926Z,85.20
2023-03-02T08:22:44.440Z,85.20
2023-03-02T08:24:05.079Z,85.30
2023-03-02T08:25:25.491Z,85.10
2023-03-02T08:26:45.980Z,85.10
2023-03-02T08:28:06.178Z,85.00
2023-03-02T08:29:26.847Z,84.80
2023-03-02T08:30:54.628Z,84.80
2023-03-02T08:32:15.576Z,84.80
2023-03-02T08:33:36.121Z,84.80
2023-03-02T08:34:56.504Z,84.50
2023-03-02T08:36:17.623Z,84.70
2023-03-02T08:37:39.444Z,84.60
2023-03-02T08:38:59.591Z,84.50
2023-03-02T08:40:19.906Z,84.40
2023-03-02T08:41:40.506Z,84.40
2023-03-02T08:43:01.165Z,84.40
2023-03-02T08:44:21.821Z,84.30
2023-03-02T08:45:42.385Z,84.10
2023-03-02T08:47:03.059Z,84.00
2023-03-02T08:48:23.706Z,83.90
2023-03-02T08:49:44.703Z,83.70
2023-03-02T08:51:06.677Z,83.40
2023-03-02T08:52:26.825Z,83.20
2023-03-02T08:53:49.244Z,83.10
2023-03-02T08:55:10.441Z,83.00
2023-03-02T08:56:31.950Z,82.60
2023-03-02T08:57:52.839Z,82.70
2023-03-02T08:59:13.642Z,82.60
2023-03-02T09:00:34.120Z,82.60
2023-03-02T09:01:54.437Z,82.20
2023-03-02T09:03:14.942Z,81.90
2023-03-02T09:04:35.468Z,81.50
2023-03-02T09:05:56.577Z,81.70
2023-03-02T09:07:17.135Z,81.60
2023-03-02T09:08:37.767Z,81.40
2023-03-02T09:09:59.609Z,81.10
2023-03-02T09:11:19.967Z,81.00
2023-03-02T09:12:40.666Z,81.00
2023-03-02T09:14:00.871Z,80.80
2023-03-02T09:15:21.501Z,79.80
2023-03-02T09:16:42.245Z,79.30
2023-03-02T09:18:02.507Z,78.60
2023-03-02T09:19:22.939Z,77.80
2023-03-02T09:20:43.444Z,77.90
2023-03-02T09:22:04.052Z,78.00
2023-03-02T09:23:25.429Z,77.80
2023-03-02T09:24:45.709Z,77.80
2023-03-02T09:26:07.806Z,77.70
2023-03-02T09:27:28.229Z,76.90
2023-03-02T09:28:48.540Z,76.70
2023-03-02T09:30:09.837Z,76.50
2023-03-02T09:31:30.721Z,76.10
2023-03-02T09:32:51.558Z,76.00
2023-03-02T09:34:11.984Z,75.60
2023-03-02T09:35:32.475Z,75.40
2023-03-02T09:36:53.087Z,75.20
2023-03-02T09:38:14.116Z,74.90
2023-03-02T09:39:34.674Z,75.20
2023-03-02T09:41:05.381Z,75.00
2023-03-02T09:42:43.558Z,75.10
2023-03-02T09:44:06.838Z,75.20
2023-03-02T09:45:48.590Z,74.90
2023-03-02T09:47:10.851Z,74.50
2023-03-02T09:48:33.198Z,74.30
2023-03-02T09:49:55.517Z,74.30
2023-03-02T09:51:18.527Z,74.20
2023-03-02T09:52:39.501Z,74.20
2023-03-02T09:54:04.315Z,74.30
2023-03-02T09:55:25.545Z,74.50
2023-03-02T09:56:47.224Z,74.50
2023-03-02T09:58:14.224Z,74.20
2023-03-02T09:59:37.480Z,73.50
2023-03-02T10:00:58.795Z,73.50
2023-03-02T10:02:21.688Z,73.30
2023-03-02T10:03:45.416Z,73.20
2023-03-02T10:05:06.873Z,73.30
2023-03-02T10:06:27.325Z,73.40
2023-03-02T10:07:47.676Z,73.70
2023-03-02T10:09:09.060Z,73.60
2023-03-02T10:10:32.529Z,72.80
2023-03-02T10:11:56.420Z,73.20
2023-03-02T10:13:21.629Z,72.90
2023-03-02T10:14:42.764Z,72.80
2023-03-02T10:16:06.344Z,73.10
2023-03-02T10:17:31.959Z,73.30
2023-03-02T10:18:54.483Z,73.30
2023-03-02T10:20:16.863Z,73.60
2023-03-02T10:21:38.769Z,73.70
2023-03-02T10:23:00.796Z,73.00
2023-03-02T10:24:22.920Z,73.00
2023-03-02T10:25:43.607Z,73.40
2023-03-02T10:27:10.231Z,73.50
2023-03-02T10:28:32.767Z,73.90
2023-03-02T10:29:54.972Z,73.10
2023-03-02T10:31:17.164Z,72.80
2023-03-02T10:32:38.351Z,72.30
2023-03-02T10:33:58.940Z,73.00
2023-03-02T10:35:22.146Z,73.50
2023-03-02T10:36:43.889Z,73.50
2023-03-02T10:38:09.722Z,73.20
2023-03-02T10:39:32.479Z,73.50
2023-03-02T10:40:54.408Z,73.00
2023-03-02T10:42:16.164Z,73.50
2023-03-02T10:43:40.180Z,73.70
2023-03-02T10:45:03.209Z,74.10
2023-03-02T10:46:23.473Z,73.60
2023-03-02T10:47:43.737Z,73.10
2023-03-02T10:49:05.382Z,72.80
2023-03-02T10:50:26.209Z,73.00
2023-03-02T10:51:46.294Z,72.80
2023-03-02T10:53:06.987Z,73.00
2023-03-02T10:54:27.676Z,72.50
2023-03-02T10:55:48.682Z,72.90
2023-03-02T10:57:21.162Z,72.50
2023-03-02T10:58:43.085Z,72.90
2023-03-02T11:00:05.008Z,72.90
2023-03-02T11:01:25.571Z,72.90
2023-03-02T11:02:49.061Z,72.60
2023-03-02T11:04:12.052Z,72.20
2023-03-02T11:05:32.974Z,72.20
2023-03-02T11:06:54.482Z,72.60
2023-03-02T11:08:16.859Z,72.20
2023-03-02T11:09:37.252Z,72.30
2023-03-02T11:11:00.827Z,72.60
2023-03-02T11:12:23.220Z,73.00
2023-03-02T11:13:45.082Z,72.00
2023-03-02T11:15:15.215Z,71.70
2023-03-02T11:16:35.415Z,71.70
2023-03-02T11:18:00.377Z,71.70
2023-03-02T11:19:23.186Z,71.30
2023-03-02T11:20:44.764Z,71.90
2023-03-02T11:22:06.592Z,71.80
2023-03-02T11:23:30.762Z,71.30
2023-03-02T11:24:51.819Z,70.90
2023-03-02T11:26:14.303Z,70.80
2023-03-02T11:27:35.381Z,71.00
2023-03-02T11:28:59.308Z,71.10
2023-03-02T11:30:20.266Z,71.50
2023-03-02T11:31:42.240Z,71.10
2023-03-02T11:33:04.389Z,70.90
2023-03-02T11:34:27.007Z,70.80
2023-03-02T11:35:49.117Z,70.50
2023-03-02T11:37:13.858Z,70.00
2023-03-02T11:38:36.600Z,70.40
2023-03-02T11:40:00.570Z,69.80
2023-03-02T11:41:25.855Z,70.00
2023-03-02T11:42:46.352Z,70.30
2023-03-02T11:44:12.228Z,69.50
2023-03-02T11:45:33.128Z,69.40
2023-03-02T11:46:54.051Z,69.70
2023-03-02T11:48:17.634Z,69.40
2023-03-02T11:49:38.236Z,69.60
2023-03-02T11:50:59.297Z,69.60
2023-03-02T11:52:20.249Z,69.20
2023-03-02T11:53:41.607Z,69.10
2023-03-02T11:55:04.137Z,69.30
2023-03-02T11:56:24.621Z,69.10
2023-03-02T11:57:45.418Z,69.00
2023-03-02T11:59:07.135Z,68.80
2023-03-02T12:00:30.637Z,68.40
2023-03-02T12:01:51.520Z,68.40
2023-03-02T12:03:19.360Z,68.10
2023-03-02T12:04:39.658Z,67.70
2023-03-02T12:06:01.040Z,67.90
2023-03-02T12:07:23.330Z,67.20
2023-03-02T12:08:44.322Z,67.70
2023-03-02T12:10:05.661Z,67.80
2023-03-02T12:11:30.514Z,67.90
2023-03-02T12:12:58.431Z,67.90
2023-03-02T12:14:25.859Z,67.50
2023-03-02T12:15:48.225Z,67.30
2023-03-02T12:17:19.370Z,67.60
2023-03-02T12:18:44.430Z,67.10
2023-03-02T12:20:18.181Z,66.20
2023-03-02T12:21:39.601Z,66.60
2023-03-02T12:23:06.569Z,66.30
2023-03-02T12:24:27.665Z,66.90
2023-03-02T12:25:47.988Z,67.00
2023-03-02T12:27:21.584Z,66.60
2023-03-02T12:28:41.803Z,66.00
2023-03-02T12:30:09.949Z,65.80
2023-03-02T12:31:41.903Z,65.70
2023-03-02T12:33:04.151Z,65.30
2023-03-02T12:34:33.183Z,65.00
2023-03-02T12:36:01.017Z,64.40
2023-03-02T12:37:21.960Z,64.20
2023-03-02T12:38:43.828Z,63.40
2023-03-02T12:40:21.976Z,63.50
2023-03-02T12:41:46.739Z,62.90
2023-03-02T12:43:21.038Z,61.90
2023-03-02T12:44:43.430Z,62.30
2023-03-02T12:46:37.519Z,61.90
2023-03-02T12:48:01.677Z,61.50
2023-03-02T12:49:29.648Z,61.60
2023-03-02T12:50:49.938Z,60.40
2023-03-02T12:52:18.490Z,60.40
2023-03-02T12:53:38.845Z,60.30
2023-03-02T12:54:59.819Z,60.70
2023-03-02T12:56:23.284Z,61.00
2023-03-02T12:57:47.452Z,61.00
2023-03-02T12:59:16.954Z,61.50
2023-03-02T13:00:37.254Z,61.90
2023-03-02T13:02:04.366Z,61.40
2023-03-02T13:03:26.852Z,59.90
2023-03-02T13:04:52.223Z,59.50
2023-03-02T13:06:13.938Z,59.00
2023-03-02T13:07:35.531Z,59.90
2023-03-02T13:08:57.188Z,59.70
2023-03-02T13:10:20.764Z,59.50
2023-03-02T13:11:43.941Z,59.50
2023-03-02T13:13:13.617Z,59.40
2023-03-02T13:14:34.185Z,59.00
2023-03-02T13:15:55.363Z,59.70
2023-03-02T13:17:20.304Z,60.50
2023-03-02T13:18:41.840Z,60.30
2023-03-02T13:20:03.705Z,60.10
2023-03-02T13:21:25.157Z,58.30
2023-03-02T13:22:45.381Z,56.80
2023-03-02T13:24:19.236Z,58.60
2023-03-02T13:25:46.765Z,58.40
2023-03-02T13:27:13.178Z,58.90
2023-03-02T13:28:33.901Z,60.00
2023-03-02T13:29:54.447Z,59.90
2023-03-02T13:31:18.546Z,59.80
2023-03-02T13:32:39.569Z,59.00
2023-03-02T13:34:01.456Z,59.50
2023-03-02T13:35:25.564Z,59.90
2023-03-02T13:36:47.152Z,59.70
2023-03-02T13:38:12.780Z,60.40
2023-03-02T13:39:33.320Z,60.00
2023-03-02T13:40:54.420Z,59.50
2023-03-02T13:42:23.042Z,60.50
2023-03-02T13:43:43.012Z,60.20
2023-03-02T13:45:24.475Z,60.30
2023-03-02T13:46:45.378Z,61.00
2023-03-02T13:48:12.902Z,60.30
2023-03-02T13:49:35.097Z,60.20
2023-03-02T13:50:56.317Z,61.10
2023-03-02T13:52:17.939Z,60.40
2023-03-02T13:53:44.487Z,60.10
2023-03-02T13:55:05.667Z,60.80
2023-03-02T13:56:28.486Z,59.30
2023-03-02T13:57:48.996Z,60.10
2023-03-02T13:59:09.798Z,59.60
2023-03-02T14:00:31.068Z,59.90
2023-03-02T14:01:51.712Z,59.60
2023-03-02T14:03:16.284Z,58.80
2023-03-02T14:04:38.483Z,59.00
2023-03-02T14:05:59.564Z,58.50
2023-03-02T14:07:21.860Z,58.30
2023-03-02T14:08:42.487Z,58.70
2023-03-02T14:10:03.098Z,58.50
2023-03-02T14:11:23.476Z,58.40
2023-03-02T14:12:47.769Z,58.60
2023-03-02T14:14:08.313Z,58.80
2023-03-02T14:15:28.948Z,58.20
2023-03-02T14:16:49.342Z,58.00
2023-03-02T14:18:12.573Z,57.60
2023-03-02T14:19:33.188Z,58.20
2023-03-02T14:20:54.990Z,58.00
2023-03-02T14:22:15.030Z,58.00
2023-03-02T14:23:35.458Z,57.90
2023-03-02T14:24:56.169Z,58.10
2023-03-02T14:26:21.912Z,58.00
2023-03-02T14:27:43.092Z,58.00
2023-03-02T14:29:05.746Z,58.10
2023-03-02T14:30:26.809Z,58.30
2023-03-02T14:31:47.525Z,57.60
2023-03-02T14:33:08.274Z,57.30
2023-03-02T14:34:28.576Z,58.30
2023-03-02T14:35:49.575Z,58.70
2023-03-02T14:37:12.664Z,58.10
2023-03-02T14:38:33.317Z,58.30
2023-03-02T14:39:55.308Z,58.30
2023-03-02T14:41:15.599Z,58.50
2023-03-02T14:42:36.007Z,59.30
2023-03-02T14:43:58.690Z,59.00
2023-03-02T14:45:19.285Z,58.60
2023-03-02T14:46:40.010Z,59.20
2023-03-02T14:48:00.298Z,59.20
2023-03-02T14:49:20.857Z,59.20
2023-03-02T14:50:42.199Z,59.00
2023-03-02T14:52:03.831Z,59.60
2023-03-02T14:53:27.720Z,60.30
2023-03-02T14:54:48.314Z,60.40
2023-03-02T14:56:08.823Z,60.90
2023-03-02T14:57:30.011Z,61.00
2023-03-02T14:58:50.385Z,60.90
2023-03-02T15:00:12.908Z,61.50
2023-03-02T15:01:33.648Z,60.60
2023-03-02T15:02:54.411Z,61.10
2023-03-02T15:04:15.561Z,60.90
2023-03-02T15:05:36.088Z,60.60
2023-03-02T15:06:56.605Z,60.50
2023-03-02T15:08:17.010Z,60.40
2023-03-02T15:09:38.892Z,60.40
2023-03-02T15:10:59.126Z,60.60
2023-03-02T15:12:19.421Z,60.60
2023-03-02T15:13:40.039Z,60.20
2023-03-02T15:15:00.589Z,60.60
2023-03-02T15:16:21.206Z,60.40
2023-03-02T15:17:41.920Z,60.80
2023-03-02T15:19:02.427Z,60.80
2023-03-02T15:20:23.018Z,60.90
2023-03-02T15:21:44.000Z,61.20
2023-03-02T15:23:04.510Z,61.10
2023-03-02T15:24:24.848Z,62.20
2023-03-02T15:25:46.867Z,61.20
2023-03-02T15:27:07.157Z,60.90
2023-03-02T15:28:27.825Z,61.50
2023-03-02T15:29:48.262Z,61.30
2023-03-02T15:31:09.318Z,61.40
2023-03-02T15:32:29.843Z,61.00
2023-03-02T15:33:50.284Z,61.50
2023-03-02T15:35:10.981Z,61.40
2023-03-02T15:36:31.719Z,61.10
2023-03-02T15:37:52.834Z,61.30
2023-03-02T15:39:13.570Z,61.60
2023-03-02T15:40:33.944Z,61.20
2023-03-02T15:41:55.772Z,61.70
2023-03-02T15:43:16.400Z,61.70
2023-03-02T15:44:37.068Z,61.50
2023-03-02T15:45:57.859Z,61.50
2023-03-02T15:47:18.374Z,61.20
2023-03-02T15:48:38.908Z,61.10
2023-03-02T15:49:59.438Z,60.90
2023-03-02T15:51:19.990Z,60.90
2023-03-02T15:52:40.710Z,60.90
2023-03-02T15:54:01.255Z,60.90
2023-03-02T15:55:21.872Z,60.00
2023-03-02T15:56:44.322Z,60.10
2023-03-02T15:58:06.363Z,60.20
2023-03-02T15:59:27.979Z,60.40
2023-03-02T16:00:48.579Z,60.10
2023-03-02T16:02:09.267Z,60.00
2023-03-02T16:03:29.329Z,59.70
2023-03-02T16:04:49.952Z,60.30
2023-03-02T16:06:10.339Z,59.80
2023-03-02T16:07:31.195Z,59.90
2023-03-02T16:08:51.499Z,60.00
2023-03-02T16:10:12.158Z,59.70
2023-03-02T16:11:32.727Z,59.70
2023-03-02T16:12:52.892Z,59.70
2023-03-02T16:14:14.661Z,60.30
2023-03-02T16:15:36.767Z,60.10
2023-03-02T16:16:57.497Z,59.90
2023-03-02T16:18:18.389Z,60.00
2023-03-02T16:19:38.521Z,60.00
2023-03-02T16:20:59.049Z,60.30
2023-03-02T16:22:19.727Z,60.80
2023-03-02T16:23:40.302Z,60.80
2023-03-02T16:25:01.017Z,60.50
2023-03-02T16:26:22.725Z,60.50
2023-03-02T16:27:43.170Z,60.20
2023-03-02T16:29:04.030Z,60.40
2023-03-02T16:30:25.959Z,60.60
2023-03-02T16:31:47.048Z,60.20
2023-03-02T16:33:08.919Z,60.50
2023-03-02T16:34:29.450Z,60.60
2023-03-02T16:35:50.319Z,60.50
2023-03-02T16:37:11.017Z,60.30
2023-03-02T16:38:31.539Z,60.90
2023-03-02T16:39:52.020Z,61.10
2023-03-02T16:41:13.736Z,61.60
2023-03-02T16:42:33.910Z,61.40
2023-03-02T16:43:55.326Z,61.70
2023-03-02T16:45:15.696Z,61.50
2023-03-02T16:46:37.696Z,61.80
2023-03-02T16:47:58.022Z,61.40
2023-03-02T16:49:18.432Z,61.60
2023-03-02T16:50:39.902Z,62.50
2023-03-02T16:52:03.407Z,62.90
2023-03-02T16:53:24.137Z,63.30
2023-03-02T16:54:44.441Z,64.00
2023-03-02T16:56:05.006Z,64.40
2023-03-02T16:57:25.304Z,64.70
2023-03-02T16:58:45.840Z,64.70
2023-03-02T17:00:07.078Z,65.10
2023-03-02T17:01:27.346Z,65.20
2023-03-02T17:02:49.339Z,65.80
2023-03-02T17:04:09.814Z,66.10
2023-03-02T17:05:31.180Z,66.60
2023-03-02T17:07:00.182Z,66.60
2023-03-02T17:08:21.154Z,66.80
2023-03-02T17:09:41.551Z,67.20
2023-03-02T17:11:02.013Z,67.70
2023-03-02T17:12:24.621Z,68.00
2023-03-02T17:13:45.145Z,67.80
2023-03-02T17:15:06.321Z,68.00
2023-03-02T17:16:26.751Z,68.20
2023-03-02T17:17:48.588Z,68.10
2023-03-02T17:19:09.153Z,68.50
2023-03-02T17:20:29.908Z,68.70
2023-03-02T17:21:56.719Z,68.90
2023-03-02T17:23:17.276Z,69.10
2023-03-02T17:24:37.832Z,69.00
2023-03-02T17:25:58.196Z,68.80
2023-03-02T17:27:24.832Z,69.10
2023-03-02T17:28:46.307Z,69.40
2023-03-02T17:30:07.461Z,69.50
2023-03-02T17:31:35.882Z,69.50